Terminal Aerodrome Forecast
Issued by NWS Sterling, VA

Home | Current Version | Previous Version | Text Only | Print | Product List | Glossary On
Versions: 1 2 3 4 5 6 7 8 9 10 11 12 13 14 15 16 17 18 19 20 21 22 23
000
FTUS41 KLWX 040540
TAFBWI
TAF
KBWI 040540Z 0406/0512 VRB04KT P6SM FEW100
     FM041400 23006KT P6SM FEW090
     FM041800 20011G17KT P6SM SCT060
     FM042300 19007KT P6SM FEW050=

USA.gov is the U.S. government's official web portal to all federal, state and local government web resources and services.